Time;durP1;ratioP1;P1;durP2;ratioP2;P2;SDS_P1;SDS_P2;PMS_P1;PMS_P2;Temp;Humidity;BMP_temperature;BMP_pressure;BME280_temperature;BME280_humidity;BME280_pressure;Samples;Min_cycle;Max_cycle;Signal;HPM_P1;HPM_P2
2024/02/27 00:00:18;;;;;;;22.10;6.60;;;;;;;-147.86;100.00;-17609.17;105712;1253;60437;-53
2024/02/27 00:02:46;;;;;;;15.70;6.60;;;;;;;-147.86;100.00;-17609.17;105658;1253;72611;-49
2024/02/27 00:05:14;;;;;;;24.70;7.70;;;;;;;-147.86;100.00;-17609.17;105667;1254;64497;-54
2024/02/27 00:07:42;;;;;;;24.50;6.90;;;;;;;-147.86;100.00;-17609.17;105677;1254;71396;-56
2024/02/27 00:10:11;;;;;;;19.90;6.30;;;;;;;-147.86;100.00;-17609.17;105687;1257;59678;-49
2024/02/27 00:12:38;;;;;;;23.70;6.40;;;;;;;-147.86;100.00;-17609.17;105717;1256;59545;-51
2024/02/27 00:15:07;;;;;;;18.90;6.70;;;;;;;-147.86;100.00;-17609.17;105684;1253;71816;-50
2024/02/27 00:17:35;;;;;;;39.80;6.90;;;;;;;-147.86;100.00;-17609.17;105711;1257;63390;-52
2024/02/27 00:20:04;;;;;;;25.20;6.10;;;;;;;-147.86;100.00;-17609.17;105666;1257;71587;-52
2024/02/27 00:22:34;;;;;;;20.80;6.30;;;;;;;-147.86;100.00;-17609.17;105743;1253;59680;-51
2024/02/27 00:25:02;;;;;;;28.10;6.70;;;;;;;-147.86;100.00;-17609.17;105715;1253;60693;-53
2024/02/27 00:27:30;;;;;;;33.80;7.00;;;;;;;-147.86;100.00;-17609.17;105919;1253;71788;-51
2024/02/27 00:29:58;;;;;;;37.80;6.90;;;;;;;-147.86;100.00;-17609.17;105683;1258;64332;-50
2024/02/27 00:32:26;;;;;;;25.80;6.90;;;;;;;-147.86;100.00;-17609.17;105720;1254;71402;-53
2024/02/27 00:34:54;;;;;;;20.60;6.80;;;;;;;-147.86;100.00;-17609.17;105672;1257;60901;-54
2024/02/27 00:37:21;;;;;;;23.40;6.10;;;;;;;-147.86;100.00;-17609.17;105735;1257;59552;-54
2024/02/27 00:39:50;;;;;;;30.40;6.50;;;;;;;-147.86;100.00;-17609.17;105734;1257;71830;-54
2024/02/27 00:42:18;;;;;;;46.40;6.50;;;;;;;-147.86;100.00;-17609.17;105893;1253;64550;-53
2024/02/27 00:44:45;;;;;;;25.20;6.80;;;;;;;-147.86;100.00;-17609.17;105670;1254;72843;-54
2024/02/27 01:00:20;;;;;;;;;;;;;;;-147.86;100.00;-9250.27;102686;1294;600420;-52
2024/02/27 01:02:48;;;;;;;25.80;6.10;;;;;;;-147.86;100.00;-17609.17;104880;1266;59402;-49
2024/02/27 01:05:15;;;;;;;36.10;6.90;;;;;;;-147.86;100.00;-17609.17;104823;1268;60057;-48
2024/02/27 01:07:44;;;;;;;41.80;6.50;;;;;;;-147.86;100.00;-17609.17;104814;1266;70944;-51
2024/02/27 01:10:12;;;;;;;36.50;8.00;;;;;;;-147.86;100.00;-17609.17;104882;1266;63228;-51
2024/02/27 01:12:40;;;;;;;34.80;7.70;;;;;;;-147.86;100.00;-17609.17;104840;1266;70275;-52
2024/02/27 02:01:25;;;;;;;;;;;;;;;-147.86;100.00;-8272.73;102967;1288;600162;-53
2024/02/27 02:03:53;;;;;;;33.00;6.60;;;;;;;-147.86;100.00;-17609.17;105123;1268;59716;-52
2024/02/27 02:06:21;;;;;;;30.80;7.80;;;;;;;-147.86;100.00;-17609.17;104863;1264;59350;-50
2024/02/27 02:08:49;;;;;;;23.60;6.40;;;;;;;-147.86;100.00;-17609.17;105042;1268;70994;-53
2024/02/27 03:02:01;;;;;;;;;;;;;;;-147.86;100.00;-5194.90;102694;1295;600681;-52
2024/02/27 03:04:28;;;;;;;25.40;7.30;;;;;;;-147.86;100.00;-17609.17;105065;1269;59443;-54
2024/02/27 03:06:57;;;;;;;35.90;7.40;;;;;;;-147.86;100.00;-17609.17;104898;1269;60018;-50
2024/02/27 03:09:25;;;;;;;31.70;7.40;;;;;;;-147.86;100.00;-17609.17;105556;1258;70930;-51
2024/02/27 03:11:54;;;;;;;29.80;7.80;;;;;;;-147.86;100.00;-17609.17;105523;1258;63263;-54
2024/02/27 03:14:22;;;;;;;27.40;9.30;;;;;;;-147.86;100.00;-17608.49;105507;1262;71642;-55
2024/02/27 03:16:50;;;;;;;22.20;7.70;;;;;;;-147.86;100.00;-17457.28;105352;1260;370310;-53
2024/02/27 03:19:18;;;;;;;33.80;7.70;;;;;;;-147.86;100.00;-17122.74;105639;1254;59911;-51
2024/02/27 03:21:46;;;;;;;31.50;8.30;;;;;;;-147.86;100.00;-16375.49;105586;1260;70628;-52
2024/02/27 03:24:13;;;;;;;28.40;7.50;;;;;;;-147.86;100.00;-15637.36;105627;1254;63668;-51
2024/02/27 03:26:42;;;;;;;27.70;8.20;;;;;;;-147.86;100.00;-14761.75;105587;1259;72480;-50
2024/02/27 03:29:10;;;;;;;33.00;8.40;;;;;;;-147.86;100.00;-13887.87;105643;1259;59741;-54
2024/02/27 03:31:38;;;;;;;23.80;8.20;;;;;;;-147.86;100.00;-12971.33;105655;1259;59661;-55
2024/02/27 03:34:06;;;;;;;28.10;8.20;;;;;;;-147.86;100.00;-12030.27;105622;1260;71637;-51
2024/02/27 03:36:38;;;;;;;48.40;8.50;;;;;;;-147.86;100.00;-11117.92;105646;1254;62957;-53
2024/02/27 03:39:07;;;;;;;45.60;8.70;;;;;;;-147.86;100.00;-10248.19;105623;1260;71382;-57
2024/02/27 03:41:35;;;;;;;35.10;9.20;;;;;;;-147.86;100.00;-9005.12;105622;1255;59686;-54
2024/02/27 03:44:03;;;;;;;39.60;9.00;;;;;;;-147.86;100.00;-7662.70;105645;1259;59644;-54
2024/02/27 03:46:31;;;;;;;40.40;9.10;;;;;;;-147.86;100.00;-6477.16;105615;1262;73102;-54
2024/02/27 03:48:59;;;;;;;23.00;8.40;;;;;;;-147.86;100.00;-5396.84;105639;1259;63186;-53
2024/02/27 04:02:10;;;;;;;;;;;;;;;-147.86;100.00;10849.40;102610;1292;600199;-51
2024/02/27 05:01:37;;;;;;;;;;;;;;;-147.86;100.00;18894.98;102694;1291;600240;-52
2024/02/27 05:04:05;;;;;;;33.10;7.90;;;;;;;-147.86;100.00;7321.01;105437;1263;59610;-52
2024/02/27 05:06:33;;;;;;;31.60;8.40;;;;;;;-147.86;100.00;8797.42;105505;1261;60032;-53
2024/02/27 05:09:01;;;;;;;28.80;7.90;;;;;;;-147.86;100.00;9557.86;105475;1260;70661;-52
2024/02/27 05:11:29;;;;;;;31.60;8.00;;;;;;;-147.86;100.00;10169.35;105450;1263;65181;-50
2024/02/27 05:13:57;;;;;;;38.90;8.50;;;;;;;-147.86;100.00;10706.37;105407;1263;71576;-52
2024/02/27 05:16:26;;;;;;;30.60;8.20;;;;;;;-147.86;100.00;11109.51;105392;1263;284039;-53
2024/02/27 05:18:53;;;;;;;20.00;8.40;;;;;;;-147.86;100.00;11645.87;105599;1256;59962;-52
2024/02/27 05:21:21;;;;;;;32.90;8.40;;;;;;;-147.86;100.00;12128.72;105612;1257;70955;-51
2024/02/27 05:23:49;;;;;;;38.80;7.50;;;;;;;-147.86;100.00;12585.99;105577;1257;63126;-55
2024/02/27 05:26:17;;;;;;;36.80;8.50;;;;;;;-147.86;100.00;12882.04;105564;1257;70801;-53
2024/02/27 05:28:45;;;;;;;23.20;7.20;;;;;;;-147.86;100.00;13035.53;105611;1260;59821;-53
2024/02/27 05:31:24;;;;;;;39.90;8.30;;;;;;;-147.86;100.00;13148.19;105582;1261;59628;-53
2024/02/27 05:33:53;;;;;;;31.20;7.90;;;;;;;-147.86;100.00;12090.46;105620;1257;71771;-53
2024/02/27 05:36:21;;;;;;;32.80;8.90;;;;;;;-147.86;100.00;12547.14;105643;1256;63220;-56
2024/02/27 05:38:56;;;;;;;22.00;8.20;;;;;;;-147.86;100.00;12672.61;105646;1257;72622;-52
2024/02/27 05:41:24;;;;;;;31.10;10.30;;;;;;;-147.86;100.00;12181.66;105601;1257;59860;-53
2024/02/27 05:43:51;;;;;;;31.10;9.60;;;;;;;-147.86;100.00;12326.82;105645;1263;59891;-51
2024/02/27 05:46:19;;;;;;;25.00;8.80;;;;;;;-147.86;100.00;12174.14;105607;1261;71946;-55
2024/02/27 05:48:47;;;;;;;29.90;9.10;;;;;;;-147.86;100.00;11862.57;105597;1262;64380;-53
2024/02/27 05:51:15;;;;;;;40.10;8.50;;;;;;;-147.86;100.00;11331.22;105593;1258;71656;-53
2024/02/27 05:53:43;;;;;;;34.60;8.80;;;;;;;-147.86;100.00;10982.46;105627;1257;59663;-55
2024/02/27 05:56:11;;;;;;;23.00;7.50;;;;;;;-147.86;100.00;10727.32;105632;1256;60025;-53
2024/02/27 05:58:39;;;;;;;43.30;8.50;;;;;;;-147.86;100.00;10527.32;105556;1257;73041;-53
2024/02/27 06:01:07;;;;;;;35.60;8.10;;;;;;;-147.86;100.00;9953.02;105544;1257;63608;-53
2024/02/27 06:03:35;;;;;;;20.90;7.50;;;;;;;-147.86;100.00;8779.48;105533;1263;72582;-53
2024/02/27 06:06:05;;;;;;;28.20;9.30;;;;;;;-147.86;100.00;7168.63;105564;1258;59658;-53
2024/02/27 06:08:33;;;;;;;32.00;8.20;;;;;;;-147.86;100.00;5610.46;105611;1263;59638;-56
2024/02/27 06:11:01;;;;;;;36.90;8.80;;;;;;;-147.86;100.00;4922.14;105575;1258;71800;-53
2024/02/27 06:13:29;;;;;;;28.50;7.80;;;;;;;-147.86;100.00;4456.08;105563;1257;63124;-50
2024/02/27 06:15:57;;;;;;;33.70;9.20;;;;;;;-147.86;100.00;3695.08;109167;1257;73474;-54
2024/02/27 06:18:24;;;;;;;29.50;8.30;;;;;;;-147.86;100.00;2873.38;109144;1257;60810;-50
2024/02/27 06:23:39;;;;;;;46.90;10.70;;;;;;;-147.86;100.00;-236.79;109132;1257;73046;-52
2024/02/27 06:26:09;;;;;;;26.80;8.50;;;;;;;-147.86;100.00;-252.85;109153;1257;62619;-52
2024/02/27 06:28:36;;;;;;;42.20;9.90;;;;;;;-147.86;100.00;-1650.51;109126;1257;72715;-55
2024/02/27 06:31:04;;;;;;;39.50;8.60;;;;;;;-147.86;100.00;-3070.13;109128;1257;60911;-51
2024/02/27 06:33:31;;;;;;;35.90;8.20;;;;;;;-147.86;100.00;-4429.23;109156;1257;60233;-47
2024/02/27 06:35:59;;;;;;;30.50;8.70;;;;;;;-147.86;100.00;-5525.30;109140;1261;72981;-54
2024/02/27 06:38:26;;;;;;;32.40;9.30;;;;;;;-147.86;100.00;-7141.39;109159;1257;64387;-54
2024/02/27 06:40:54;;;;;;;54.30;8.30;;;;;;;-147.86;100.00;-8315.12;109089;1257;72629;-52
2024/02/27 06:43:21;;;;;;;38.80;9.60;;;;;;;-147.86;100.00;-9053.50;109137;1257;60872;-54
2024/02/27 06:45:51;;;;;;;36.00;9.40;;;;;;;-147.86;100.00;-9928.48;109147;1257;60018;-56
2024/02/27 06:48:18;;;;;;;29.60;8.50;;;;;;;-147.86;100.00;-10872.00;109157;1257;72753;-57
2024/02/27 06:50:46;;;;;;;31.20;10.00;;;;;;;-147.86;100.00;-11816.44;109136;1257;64332;-53
2024/02/27 06:53:13;;;;;;;40.80;8.80;;;;;;;-147.86;100.00;-12799.63;109100;1257;71466;-52
2024/02/27 06:55:41;;;;;;;33.90;8.40;;;;;;;-147.86;100.00;-14073.51;109117;1256;60957;-56
2024/02/27 07:01:14;;;;;;;;;;;;;;;-147.86;100.00;-3052.27;102862;1289;600159;-56
2024/02/27 07:03:42;;;;;;;34.70;9.20;;;;;;;-147.86;100.00;-15664.39;105082;1270;59960;-51
2024/02/27 07:06:10;;;;;;;38.20;8.80;;;;;;;-147.86;100.00;-17034.08;105062;1269;59422;-51
2024/02/27 07:08:38;;;;;;;34.70;9.10;;;;;;;-147.86;100.00;-17609.17;105056;1269;71299;-50
2024/02/27 07:11:08;;;;;;;46.30;10.80;;;;;;;-147.86;100.00;-17609.17;105030;1267;64789;-54
2024/02/27 07:13:36;;;;;;;41.30;8.90;;;;;;;-147.86;100.00;-17609.17;105169;1264;71872;-56
2024/02/27 07:16:04;;;;;;;42.00;12.70;;;;;;;-147.86;100.00;-17609.17;105024;1266;232063;-51
2024/02/27 07:18:32;;;;;;;33.60;8.60;;;;;;;-147.86;100.00;-17609.17;105236;1262;59252;-57
2024/02/27 07:21:00;;;;;;;29.40;8.90;;;;;;;-147.86;100.00;-17609.17;105253;1263;70945;-52
2024/02/27 07:23:29;;;;;;;29.40;8.90;;;;;;;-147.86;100.00;-17609.17;105200;1266;64706;-53
2024/02/27 07:25:57;;;;;;;51.20;9.40;;;;;;;-147.86;100.00;-17609.17;105227;1264;72639;-52
2024/02/27 07:28:25;;;;;;;34.00;9.20;;;;;;;-147.86;100.00;-17609.17;105220;1263;59729;-52
2024/02/27 07:30:59;;;;;;;42.40;9.60;;;;;;;-147.86;100.00;-17609.17;105179;1264;61821;-49
2024/02/27 07:33:27;;;;;;;36.50;9.40;;;;;;;-147.86;100.00;-17609.17;105220;1262;71796;-51
2024/02/27 07:35:55;;;;;;;47.00;12.60;;;;;;;-147.86;100.00;-17609.17;105184;1266;66632;-50
2024/02/27 07:38:23;;;;;;;37.10;9.00;;;;;;;-147.86;100.00;-17609.17;105153;1264;72399;-52
2024/02/27 07:40:51;;;;;;;38.60;9.70;;;;;;;-147.86;100.00;-17609.17;105166;1264;59741;-51
2024/02/27 07:43:19;;;;;;;33.30;9.40;;;;;;;-147.86;100.00;-17609.17;105231;1264;59795;-50
2024/02/27 07:45:51;;;;;;;48.60;10.90;;;;;;;-147.86;100.00;-17609.17;105192;1262;73955;-54
2024/02/27 07:48:22;;;;;;;37.80;10.30;;;;;;;-147.86;100.00;-17609.17;105239;1265;67255;-51
2024/02/27 07:50:53;;;;;;;33.80;11.50;;;;;;;-147.86;100.00;-17609.17;105180;1264;73505;-52
2024/02/27 07:53:22;;;;;;;40.90;10.20;;;;;;;-147.86;100.00;-17609.17;105244;1263;59675;-56
2024/02/27 07:55:50;;;;;;;37.40;10.10;;;;;;;-147.86;100.00;-17609.17;105246;1262;60981;-54
2024/02/27 07:58:17;;;;;;;46.40;11.00;;;;;;;-147.86;100.00;-17609.17;105178;1262;72887;-54
2024/02/27 08:00:45;;;;;;;75.40;26.50;;;;;;;-147.86;100.00;-17609.17;105161;1262;65525;-51
2024/02/27 08:03:14;;;;;;;61.10;15.00;;;;;;;-147.86;100.00;-17609.17;105640;1254;72667;-57
2024/02/27 08:05:42;;;;;;;186.70;75.80;;;;;;;-147.86;100.00;-17609.17;105711;1257;59666;-51
2024/02/27 08:08:11;;;;;;;53.00;23.60;;;;;;;-147.86;100.00;-17609.17;105634;1255;61304;-54
2024/02/27 08:10:39;;;;;;;31.80;9.50;;;;;;;-147.86;100.00;-17609.17;105646;1260;72868;-51
2024/02/27 08:13:07;;;;;;;36.20;8.20;;;;;;;-147.86;100.00;-17609.17;105623;1259;65682;-54
2024/02/27 08:15:36;;;;;;;47.20;9.40;;;;;;;-147.86;100.00;-17609.17;105611;1257;72767;-51
2024/02/27 08:18:04;;;;;;;38.90;8.80;;;;;;;-147.86;100.00;-17609.17;105628;1260;60898;-54
2024/02/27 08:20:32;;;;;;;39.50;9.50;;;;;;;-147.86;100.00;-17609.17;105597;1257;60099;-54
2024/02/27 08:22:59;;;;;;;38.10;9.40;;;;;;;-147.86;100.00;-17609.17;105671;1258;73352;-48
2024/02/27 08:25:28;;;;;;;21.60;8.70;;;;;;;-147.86;100.00;-17609.17;105611;1257;66378;-53
2024/02/27 08:27:56;;;;;;;43.70;9.60;;;;;;;-147.86;100.00;-17609.17;105598;1258;75413;-52
2024/02/27 08:30:24;;;;;;;32.80;10.60;;;;;;;-147.86;100.00;-17609.17;105630;1257;62157;-53
2024/02/27 08:32:51;;;;;;;42.10;9.80;;;;;;;-147.86;100.00;-17609.17;105642;1257;59793;-54
2024/02/27 08:35:22;;;;;;;29.30;10.30;;;;;;;-147.86;100.00;-17609.17;105580;1257;74046;-51
2024/02/27 08:37:50;;;;;;;26.50;8.70;;;;;;;-147.86;100.00;-17609.17;105635;1260;64961;-56
2024/02/27 08:40:18;;;;;;;34.50;9.50;;;;;;;-147.86;100.00;-17609.17;105612;1260;74902;-52
2024/02/27 08:42:45;;;;;;;31.90;9.30;;;;;;;-147.86;100.00;-17609.17;105612;1260;59666;-55
2024/02/27 08:45:13;;;;;;;48.60;13.40;;;;;;;-147.86;100.00;-17609.17;105622;1257;60097;-56
2024/02/27 08:47:41;;;;;;;39.10;8.70;;;;;;;-147.86;100.00;-17609.17;105629;1256;75256;-55
2024/02/27 08:50:11;;;;;;;34.80;8.50;;;;;;;-147.86;100.00;-17609.17;105639;1260;64963;-54
2024/02/27 08:52:39;;;;;;;33.00;10.10;;;;;;;-147.86;100.00;-17609.17;105642;1260;72626;-57
2024/02/27 08:55:07;;;;;;;46.40;10.20;;;;;;;-147.86;100.00;-17609.17;105632;1260;60146;-48
2024/02/27 08:57:36;;;;;;;28.10;8.30;;;;;;;-147.86;100.00;-17609.17;105690;1257;62290;-51
2024/02/27 09:00:06;;;;;;;103.60;38.20;;;;;;;-147.86;100.00;-17609.17;105611;1258;73682;-52
2024/02/27 09:02:37;;;;;;;34.90;9.70;;;;;;;-147.86;100.00;-17609.17;105655;1260;64223;-56
2024/02/27 09:05:06;;;;;;;185.50;72.70;;;;;;;-147.86;100.00;-17609.17;105660;1257;74931;-54
2024/02/27 09:07:39;;;;;;;55.00;21.20;;;;;;;-147.86;100.00;-17609.17;105634;1258;59801;-54
2024/02/27 09:10:10;;;;;;;35.40;9.50;;;;;;;-147.86;100.00;-17609.17;105682;1257;62451;-52
2024/02/27 09:12:39;;;;;;;37.00;12.80;;;;;;;-147.86;100.00;-17609.17;105632;1257;73953;-52
2024/02/27 09:15:08;;;;;;;27.10;8.90;;;;;;;-147.86;100.00;-17609.17;105643;1260;64464;-52
2024/02/27 09:17:36;;;;;;;40.10;8.40;;;;;;;-147.86;100.00;-17609.17;105604;1259;74829;-56
2024/02/27 09:20:06;;;;;;;37.10;8.60;;;;;;;-147.86;100.00;-15040.81;105677;1260;61180;-53
2024/02/27 09:22:34;;;;;;;39.20;8.00;;;;;;;-147.86;100.00;-11830.34;105671;1259;61088;-55
2024/02/27 09:25:03;;;;;;;39.10;8.60;;;;;;;-147.86;100.00;-9506.73;105616;1260;75331;-53
2024/02/27 09:27:31;;;;;;;31.70;7.60;;;;;;;-147.86;100.00;-6687.56;105645;1260;66399;-51
2024/02/27 09:29:59;;;;;;;29.60;7.80;;;;;;;-147.86;99.81;-3420.23;105625;1255;70922;-54
2024/02/27 09:32:27;;;;;;;37.80;10.30;;;;;;;-147.86;99.80;-2181.96;105606;1257;59700;-52
2024/02/27 09:34:54;;;;;;;48.30;10.30;;;;;;;-147.86;99.96;-1785.63;105621;1254;60994;-54
2024/02/27 09:37:22;;;;;;;35.80;8.90;;;;;;;-147.86;99.00;-149.55;105632;1257;72817;-50
2024/02/27 09:39:50;;;;;;;31.40;8.10;;;;;;;-147.86;98.30;5157.08;105633;1257;65247;-53
2024/02/27 09:42:26;;;;;;;35.40;8.50;;;;;;;-147.86;97.50;8136.50;105648;1256;74585;-49
2024/02/27 09:46:02;;;;;;;42.90;9.90;;;;;;;-147.86;97.63;13903.68;102708;1291;601069;-51
2024/02/27 09:48:30;;;;;;;24.20;8.30;;;;;;;-147.86;97.78;10769.93;104829;1264;59844;-51
2024/02/27 09:50:59;;;;;;;31.70;9.40;;;;;;;-147.86;96.08;16242.40;104862;1272;60766;-51
2024/02/27 09:53:27;;;;;;;29.30;7.60;;;;;;;-147.86;95.17;24149.19;105042;1269;72308;-53
2024/02/27 09:55:56;;;;;;;25.40;8.20;;;;;;;-147.86;92.09;38733.63;105059;1269;65912;-54
2024/02/27 09:58:23;;;;;;;34.00;10.80;;;;;;;-147.86;89.74;44122.26;104799;1272;74609;-54
2024/02/27 10:00:52;;;;;;;33.70;10.70;;;;;;;-147.86;87.40;45534.43;104953;1269;255072;-52
2024/02/27 10:03:21;;;;;;;38.40;7.80;;;;;;;-147.86;90.65;45508.57;104905;1269;59348;-52
2024/02/27 10:05:49;;;;;;;53.60;9.00;;;;;;;-147.86;90.66;45034.91;105217;1262;72305;-52
2024/02/27 10:08:22;;;;;;;34.00;9.30;;;;;;;-147.86;88.67;45558.72;105159;1264;64952;-53
2024/02/27 10:10:50;;;;;;;38.40;7.90;;;;;;;-147.86;91.08;45381.63;105192;1264;73619;-52
2024/02/27 10:13:18;;;;;;;28.00;7.70;;;;;;;-147.86;92.63;44863.71;105177;1269;59771;-50
2024/02/27 10:15:46;;;;;;;34.10;9.20;;;;;;;-147.86;91.26;44795.55;105192;1269;62338;-56
2024/02/27 10:18:13;;;;;;;45.80;7.70;;;;;;;-147.86;90.54;45235.49;105100;1264;75408;-53
2024/02/27 10:20:43;;;;;;;31.20;7.50;;;;;;;-147.86;92.55;44936.58;104843;1272;64981;-51
2024/02/27 10:23:11;;;;;;;42.80;8.30;;;;;;;-147.86;92.49;44383.07;105175;1264;70693;-54
2024/02/27 10:25:38;;;;;;;31.50;7.70;;;;;;;-147.86;88.99;45348.72;105085;1269;59836;-50
2024/02/27 10:28:06;;;;;;;46.60;6.90;;;;;;;-147.86;90.16;45514.84;105234;1270;59810;-51
2024/02/27 10:30:37;;;;;;;32.90;7.80;;;;;;;-147.86;87.41;45662.95;105159;1267;73172;-49
2024/02/27 10:33:08;;;;;;;30.00;9.20;;;;;;;-147.86;87.54;45892.95;105002;1268;64740;-55
2024/02/27 10:35:37;;;;;;;34.70;8.00;;;;;;;-147.86;87.65;45868.65;104903;1272;72634;-53
2024/02/27 10:38:15;;;;;;;30.90;8.80;;;;;;;-147.86;85.18;46018.34;105213;1264;59730;-55
2024/02/27 10:40:44;;;;;;;28.90;7.30;;;;;;;-147.86;85.53;46086.13;105276;1264;62216;-51
2024/02/27 10:43:12;;;;;;;27.10;7.80;;;;;;;-147.86;86.95;46072.42;105178;1268;73994;-51
2024/02/27 10:45:43;;;;;;;38.70;8.00;;;;;;;-147.86;85.54;46083.39;105144;1269;66699;-53
2024/02/27 10:48:11;;;;;;;22.40;7.00;;;;;;;-147.86;83.57;46248.76;105220;1269;74827;-55
2024/02/27 10:50:39;;;;;;;22.70;7.00;;;;;;;-147.86;78.55;46339.68;105221;1269;61273;-51
2024/02/27 10:53:06;;;;;;;27.20;8.40;;;;;;;-147.86;79.88;46399.24;104830;1262;62317;-54
2024/02/27 10:55:34;;;;;;;41.00;7.90;;;;;;;-147.86;82.79;46363.98;105203;1262;72841;-56
2024/02/27 10:58:03;;;;;;;30.10;7.70;;;;;;;-147.86;80.27;46362.80;105255;1266;66747;-49
2024/02/27 11:00:33;;;;;;;32.10;8.50;;;;;;;-147.86;79.63;46411.78;105262;1266;72525;-52
2024/02/27 11:03:01;;;;;;;39.60;8.90;;;;;;;-147.86;82.81;46396.11;105252;1261;59660;-56
2024/02/27 11:05:29;;;;;;;25.80;7.30;;;;;;;-147.86;82.33;46367.89;105267;1261;59914;-53
2024/02/27 11:07:57;;;;;;;27.70;8.00;;;;;;;-147.86;81.14;46386.31;105270;1261;73326;-57
2024/02/27 11:10:29;;;;;;;29.90;8.00;;;;;;;-147.86;81.63;46405.51;105277;1266;66714;-54
2024/02/27 11:12:59;;;;;;;34.40;7.60;;;;;;;-147.86;80.54;46435.69;105235;1264;72564;-53
2024/02/27 11:15:27;;;;;;;30.90;8.10;;;;;;;-147.86;80.09;46466.26;105237;1269;59836;-53
2024/02/27 11:18:02;;;;;;;26.50;7.80;;;;;;;-147.86;79.28;46496.83;105258;1268;59657;-57
2024/02/27 11:20:30;;;;;;;32.60;9.10;;;;;;;-147.86;79.32;46510.94;105273;1266;73488;-54
2024/02/27 11:22:59;;;;;;;32.80;8.20;;;;;;;-147.86;77.98;46533.66;105251;1261;63321;-51
2024/02/27 11:25:27;;;;;;;36.20;10.40;;;;;;;-147.86;78.24;46565.80;105293;1266;73836;-51
2024/02/27 11:27:57;;;;;;;32.30;8.60;;;;;;;-147.86;78.07;46579.13;105219;1265;61415;-56
2024/02/27 11:30:25;;;;;;;27.30;9.00;;;;;;;-147.86;78.07;46600.29;105276;1265;60959;-54
2024/02/27 11:32:56;;;;;;;32.60;7.60;;;;;;;-147.86;77.96;46602.25;105307;1266;71214;-54
2024/02/27 11:35:24;;;;;;;29.90;8.00;;;;;;;-147.86;78.41;46622.24;105243;1269;66876;-52
2024/02/27 11:37:52;;;;;;;35.70;9.90;;;;;;;-147.86;81.13;46577.95;105268;1260;72699;-53
2024/02/27 11:40:46;;;;;;;32.30;8.00;;;;;;;-147.86;80.00;46558.75;105273;1267;59650;-55
2024/02/27 11:43:14;;;;;;;36.40;7.50;;;;;;;-147.86;79.53;46583.04;105290;1262;61288;-54
2024/02/27 11:45:43;;;;;;;37.90;16.00;;;;;;;-147.86;80.45;46570.51;105307;1261;73244;-53
2024/02/27 11:48:11;;;;;;;40.00;9.80;;;;;;;-147.86;81.52;46546.21;105307;1266;64265;-54
2024/02/27 11:50:39;;;;;;;31.70;10.80;;;;;;;-147.86;82.43;46528.18;105186;1269;74762;-55
2024/02/27 11:53:16;;;;;;;36.20;12.00;;;;;;;-147.86;82.11;46509.76;105273;1266;59768;-54
2024/02/27 11:55:45;;;;;;;39.50;8.70;;;;;;;-147.86;82.39;46502.31;105319;1267;60953;-49
2024/02/27 11:58:13;;;;;;;27.60;11.90;;;;;;;-147.86;80.55;46530.14;105300;1261;72941;-55
2024/02/27 12:00:45;;;;;;;36.30;12.10;;;;;;;-147.86;77.56;46577.17;105272;1266;64301;-54
2024/02/27 12:03:14;;;;;;;31.90;13.30;;;;;;;-147.86;77.82;46638.70;105313;1266;74590;-56
2024/02/27 12:05:43;;;;;;;25.20;9.70;;;;;;;-147.86;79.23;46628.11;105221;1267;59743;-51
2024/02/27 12:08:11;;;;;;;33.20;12.60;;;;;;;-147.86;78.11;46641.04;105290;1260;60134;-59
2024/02/27 12:10:39;;;;;;;24.90;9.70;;;;;;;-147.86;78.89;46655.94;105331;1261;72980;-56
2024/02/27 12:13:08;;;;;;;39.00;17.30;;;;;;;-147.86;80.01;46650.06;105243;1266;64242;-55
2024/02/27 12:15:36;;;;;;;43.70;19.20;;;;;;;-147.86;79.25;46651.24;105257;1265;74650;-54
2024/02/27 12:18:04;;;;;;;32.40;11.20;;;;;;;-147.86;78.64;46656.72;105283;1268;59659;-51
2024/02/27 12:20:32;;;;;;;42.90;14.50;;;;;;;-147.86;77.95;46679.46;105289;1266;62285;-52
2024/02/27 12:23:00;;;;;;;37.40;10.30;;;;;;;-147.86;78.85;46697.09;105239;1266;72457;-54
2024/02/27 12:25:27;;;;;;;33.90;12.00;;;;;;;-147.86;78.86;46689.65;105215;1274;64600;-54
2024/02/27 12:27:55;;;;;;;39.40;12.50;;;;;;;-147.86;76.54;46719.82;105259;1265;72514;-54
2024/02/27 12:30:23;;;;;;;37.00;10.90;;;;;;;-147.86;74.03;46784.49;105324;1274;59819;-55
2024/02/27 12:32:51;;;;;;;40.80;14.00;;;;;;;-147.86;74.37;46817.80;105247;1261;59975;-55
2024/02/27 12:35:20;;;;;;;31.50;9.60;;;;;;;-147.86;75.28;46834.27;105229;1274;73328;-52
2024/02/27 12:37:49;;;;;;;20.60;7.60;;;;;;;-147.86;73.78;46850.34;105250;1261;63269;-54
2024/02/27 12:40:19;;;;;;;24.10;8.00;;;;;;;-147.86;71.76;46911.48;105246;1266;72599;-52
2024/02/27 12:42:54;;;;;;;28.90;10.70;;;;;;;-147.86;71.68;46937.74;105309;1267;59781;-54
2024/02/27 12:45:22;;;;;;;37.20;12.00;;;;;;;-147.86;73.72;46958.91;105252;1262;60875;-55
2024/02/27 12:47:51;;;;;;;26.40;8.30;;;;;;;-147.86;74.07;46930.68;105280;1260;74250;-53
2024/02/27 12:50:22;;;;;;;22.00;8.10;;;;;;;-147.86;71.77;46973.80;105268;1264;64843;-55
2024/02/27 12:52:53;;;;;;;24.50;8.00;;;;;;;-147.86;72.37;47005.94;105240;1260;74908;-51
2024/02/27 12:55:37;;;;;;;26.80;9.10;;;;;;;-147.86;74.39;46983.21;105214;1267;59783;-53
2024/02/27 12:58:05;;;;;;;22.50;9.00;;;;;;;-147.86;74.94;46983.21;105280;1264;59838;-57
2024/02/27 13:00:33;;;;;;;26.00;9.30;;;;;;;-147.86;74.22;46973.02;105207;1259;73171;-52
2024/02/27 13:03:02;;;;;;;22.70;9.30;;;;;;;-147.86;72.54;46991.05;105221;1260;65728;-57
2024/02/27 13:05:32;;;;;;;34.30;9.40;;;;;;;-147.86;73.69;47012.21;105252;1264;73615;-53
2024/02/27 13:08:01;;;;;;;39.80;12.70;;;;;;;-147.86;74.70;47004.37;105268;1266;60259;-52
2024/02/27 13:10:31;;;;;;;214.80;128.40;;;;;;;-147.86;76.90;46985.16;105260;1261;59970;-54
2024/02/27 13:13:18;;;;;;;40.70;16.20;;;;;;;-147.86;73.70;46993.40;105304;1260;72914;-54
2024/02/27 13:16:05;;;;;;;139.40;76.20;;;;;;;-147.86;73.17;46948.72;102678;1295;600693;-54
2024/02/27 13:18:33;;;;;;;46.00;17.80;;;;;;;-147.86;73.33;47021.23;104839;1272;59302;-55
2024/02/27 13:21:02;;;;;;;27.80;11.10;;;;;;;-147.86;75.28;47017.30;104852;1270;62241;-53
2024/02/27 13:23:30;;;;;;;34.90;10.50;;;;;;;-147.86;75.94;47014.96;104870;1273;71823;-51
2024/02/27 13:25:57;;;;;;;30.80;9.60;;;;;;;-147.86;73.15;47014.17;104864;1271;64289;-55
2024/02/27 13:28:30;;;;;;;24.80;8.70;;;;;;;-147.86;72.97;47049.05;104868;1267;72957;-54
2024/02/27 13:30:58;;;;;;;26.90;8.50;;;;;;;-147.86;73.33;47067.48;104971;1270;59586;-54
2024/02/27 13:33:26;;;;;;;28.10;8.30;;;;;;;-147.86;72.72;47068.26;105179;1269;60323;-47
2024/02/27 13:35:56;;;;;;;34.20;9.30;;;;;;;-147.86;70.48;47096.88;105852;1257;74481;-55
2024/02/27 13:38:23;;;;;;;19.30;8.10;;;;;;;-147.86;69.78;47128.63;105875;1257;65695;-51
2024/02/27 13:40:54;;;;;;;23.20;7.70;;;;;;;-147.86;71.34;47147.05;105844;1256;74718;-57
2024/02/27 13:43:22;;;;;;;25.80;9.10;;;;;;;-147.86;71.16;47155.67;105825;1257;59707;-57
2024/02/27 13:45:50;;;;;;;31.30;9.00;;;;;;;-147.86;70.76;47163.12;105866;1257;62478;-53
2024/02/27 13:48:19;;;;;;;25.60;9.10;;;;;;;-147.86;69.79;47178.01;105868;1258;75053;-49
2024/02/27 13:50:47;;;;;;;30.70;8.70;;;;;;;-147.86;69.49;47198.01;105820;1258;64787;-52
2024/02/27 13:53:15;;;;;;;26.80;10.50;;;;;;;-147.86;70.69;47223.09;105801;1259;74908;-54
2024/02/27 13:55:43;;;;;;;30.00;10.50;;;;;;;-147.86;71.57;47201.14;105811;1257;59746;-52
2024/02/27 13:58:10;;;;;;;27.10;10.40;;;;;;;-147.86;72.47;47185.46;105869;1253;61912;-51
2024/02/27 14:00:38;;;;;;;30.00;9.40;;;;;;;-147.86;72.28;47171.35;105929;1263;73497;-53
2024/02/27 14:03:08;;;;;;;25.20;8.70;;;;;;;-147.86;71.80;47181.15;105861;1257;64315;-53
2024/02/27 14:05:36;;;;;;;25.20;8.00;;;;;;;-147.86;71.09;47172.13;105737;1259;74620;-53